createdAt,value
2019-04-29T00:00:25.518Z,3.50
2019-04-29T00:02:56.443Z,3.17
2019-04-29T00:05:27.784Z,3.53
2019-04-29T00:07:58.762Z,3.80
2019-04-29T00:10:29.970Z,3.53
2019-04-29T00:13:00.963Z,2.77
2019-04-29T00:15:46.819Z,3.20
2019-04-29T00:18:36.824Z,2.93
2019-04-29T00:21:08.763Z,3.40
2019-04-29T00:23:39.795Z,3.87
2019-04-29T00:26:10.616Z,3.10
2019-04-29T00:28:41.609Z,3.27
2019-04-29T00:31:12.995Z,3.43
2019-04-29T00:33:43.902Z,3.40
2019-04-29T00:36:16.172Z,3.67
2019-04-29T00:39:06.000Z,3.08
2019-04-29T00:41:56.166Z,3.17
2019-04-29T00:44:27.208Z,2.97
2019-04-29T00:46:58.211Z,5.53
2019-04-29T00:49:29.382Z,3.30
2019-04-29T00:52:00.228Z,3.67
2019-04-29T00:54:50.069Z,3.67
2019-04-29T00:57:21.103Z,3.08
2019-04-29T00:59:52.233Z,3.43
2019-04-29T01:02:23.289Z,4.15
2019-04-29T01:04:54.116Z,2.80
2019-04-29T01:07:24.930Z,3.40
2019-04-29T01:09:55.728Z,3.07
2019-04-29T01:12:26.565Z,3.13
2019-04-29T01:14:57.379Z,3.63
2019-04-29T01:17:28.199Z,2.90
2019-04-29T01:19:59.131Z,4.08
2019-04-29T01:22:30.418Z,2.63
2019-04-29T01:25:01.333Z,3.17
2019-04-29T01:27:38.234Z,3.60
2019-04-29T01:30:13.600Z,3.50
2019-04-29T01:32:44.560Z,3.97
2019-04-29T01:35:16.242Z,3.30
2019-04-29T01:37:47.486Z,3.43
2019-04-29T01:40:36.630Z,3.30
2019-04-29T01:43:07.527Z,3.30
2019-04-29T01:45:39.432Z,4.43
2019-04-29T01:48:10.195Z,4.63
2019-04-29T01:50:41.125Z,3.37
2019-04-29T01:53:11.998Z,4.72
2019-04-29T01:55:42.758Z,3.70
2019-04-29T01:58:13.741Z,4.70
2019-04-29T02:00:44.642Z,3.20
2019-04-29T02:03:15.509Z,3.73
2019-04-29T02:05:46.539Z,3.83
2019-04-29T02:08:17.487Z,4.62
2019-04-29T02:10:48.329Z,3.63
2019-04-29T02:13:20.789Z,3.37
2019-04-29T02:15:52.199Z,3.83
2019-04-29T02:18:23.095Z,3.60
2019-04-29T02:20:54.078Z,3.60
2019-04-29T02:23:33.764Z,3.53
2019-04-29T02:26:05.953Z,3.70
2019-04-29T02:28:36.855Z,3.57
2019-04-29T02:31:25.533Z,3.50
2019-04-29T02:33:56.391Z,3.93
2019-04-29T02:36:29.897Z,3.60
2019-04-29T02:39:22.139Z,3.47
2019-04-29T02:42:21.205Z,4.07
2019-04-29T02:44:52.919Z,4.50
2019-04-29T02:47:23.885Z,3.90
2019-04-29T02:49:54.561Z,3.50
2019-04-29T02:52:25.473Z,3.07
2019-04-29T02:54:59.131Z,3.53
2019-04-29T02:57:34.881Z,4.53
2019-04-29T03:00:29.229Z,3.45
2019-04-29T03:03:07.206Z,3.50
2019-04-29T03:05:43.306Z,4.50
2019-04-29T03:08:14.234Z,3.12
2019-04-29T03:10:45.127Z,3.77
2019-04-29T03:13:17.142Z,3.53
2019-04-29T03:15:50.834Z,4.43
2019-04-29T03:18:26.402Z,4.63
2019-04-29T03:21:02.110Z,3.83
2019-04-29T03:23:32.939Z,5.10
2019-04-29T03:26:03.874Z,4.97
2019-04-29T03:28:34.737Z,3.77
2019-04-29T03:31:05.781Z,3.47
2019-04-29T03:33:36.563Z,4.40
2019-04-29T03:36:07.380Z,4.37
2019-04-29T03:38:38.178Z,3.47
2019-04-29T03:41:08.955Z,3.23
2019-04-29T03:43:39.760Z,3.63
2019-04-29T03:46:10.612Z,3.33
2019-04-29T03:48:41.954Z,3.00
2019-04-29T03:51:12.858Z,3.72
2019-04-29T03:53:43.643Z,3.60
2019-04-29T03:56:14.517Z,3.37
2019-04-29T03:58:45.420Z,3.83
2019-04-29T04:01:42.596Z,3.35
2019-04-29T04:04:21.489Z,6.50
2019-04-29T04:07:10.890Z,4.37
2019-04-29T04:09:41.672Z,3.27
2019-04-29T04:12:12.560Z,5.12
2019-04-29T04:14:43.266Z,4.87
2019-04-29T04:17:27.141Z,3.60
2019-04-29T04:19:58.107Z,3.77
2019-04-29T04:22:31.005Z,3.70
2019-04-29T04:25:01.862Z,4.60
2019-04-29T04:27:33.072Z,3.53
2019-04-29T04:30:04.745Z,3.60
2019-04-29T04:32:35.494Z,3.90
2019-04-29T04:35:06.493Z,3.95
2019-04-29T04:37:37.501Z,3.20
2019-04-29T04:40:11.744Z,3.43
2019-04-29T04:42:42.593Z,3.50
2019-04-29T04:45:14.266Z,3.37
2019-04-29T04:47:44.924Z,3.80
2019-04-29T04:50:16.561Z,4.47
2019-04-29T04:52:47.395Z,4.40
2019-04-29T04:55:19.602Z,3.67
2019-04-29T04:57:50.416Z,3.40
2019-04-29T05:00:23.603Z,4.05
2019-04-29T05:02:54.547Z,4.37
2019-04-29T05:05:25.515Z,4.93
2019-04-29T05:07:58.413Z,3.83
2019-04-29T05:10:29.776Z,3.57
2019-04-29T05:13:00.652Z,4.58
2019-04-29T05:15:31.435Z,5.13
2019-04-29T05:18:02.953Z,5.07
2019-04-29T05:20:33.731Z,4.90
2019-04-29T05:23:04.548Z,5.07
2019-04-29T05:25:35.396Z,4.00
2019-04-29T05:28:06.391Z,6.00
2019-04-29T05:30:37.423Z,4.40
2019-04-29T05:33:08.207Z,4.23
2019-04-29T05:35:49.007Z,6.08
2019-04-29T05:38:26.809Z,4.17
2019-04-29T05:40:57.543Z,5.40
2019-04-29T05:43:39.069Z,5.90
2019-04-29T05:46:28.950Z,4.78
2019-04-29T05:49:02.415Z,5.27
2019-04-29T05:51:47.369Z,6.30
2019-04-29T05:54:18.600Z,7.60
2019-04-29T05:56:49.980Z,6.65
2019-04-29T05:59:22.352Z,6.27
2019-04-29T06:01:53.127Z,4.53
2019-04-29T06:04:24.751Z,4.70
2019-04-29T06:06:56.270Z,4.17
2019-04-29T06:09:28.540Z,5.23
2019-04-29T06:12:00.382Z,6.07
2019-04-29T06:14:31.194Z,5.93
2019-04-29T06:17:03.709Z,6.50
2019-04-29T06:19:35.120Z,4.30
2019-04-29T06:22:07.141Z,4.60
2019-04-29T06:24:41.085Z,4.30
2019-04-29T06:27:12.112Z,6.15
2019-04-29T06:29:47.091Z,4.47
2019-04-29T06:32:24.855Z,5.33
2019-04-29T06:34:53.709Z,5.13
2019-04-29T06:37:24.563Z,4.43
2019-04-29T06:39:55.451Z,4.00
2019-04-29T06:42:26.267Z,6.50
2019-04-29T06:44:57.027Z,6.77
2019-04-29T06:47:27.890Z,8.40
2019-04-29T06:50:00.984Z,10.67
2019-04-29T06:52:33.390Z,11.30
2019-04-29T06:55:05.576Z,11.35
2019-04-29T06:57:36.411Z,5.13
2019-04-29T07:00:08.176Z,8.13
2019-04-29T07:02:39.139Z,6.63
2019-04-29T07:05:10.002Z,8.07
2019-04-29T07:07:41.041Z,5.27
2019-04-29T07:10:16.614Z,4.57
2019-04-29T07:12:47.452Z,9.87
2019-04-29T07:15:18.913Z,5.50
2019-04-29T07:17:50.847Z,5.77
2019-04-29T07:20:21.625Z,8.03
2019-04-29T07:22:52.541Z,7.80
2019-04-29T07:25:24.692Z,6.70
2019-04-29T07:27:56.316Z,5.77
2019-04-29T07:30:29.254Z,4.87
2019-04-29T07:33:00.060Z,5.63
2019-04-29T07:35:30.985Z,5.27
2019-04-29T07:38:04.524Z,5.63
2019-04-29T07:40:34.443Z,6.20
2019-04-29T07:43:07.765Z,5.30
2019-04-29T07:45:51.707Z,3.75
2019-04-29T07:48:22.552Z,4.53
2019-04-29T07:50:53.556Z,3.40
2019-04-29T07:53:34.525Z,5.90
2019-04-29T07:55:57.476Z,2.73
2019-04-29T07:58:29.534Z,3.03
2019-04-29T08:01:00.405Z,2.70
2019-04-29T08:03:31.476Z,5.60
2019-04-29T08:06:04.034Z,6.70
2019-04-29T08:08:38.370Z,3.08
2019-04-29T08:11:09.433Z,2.60
2019-04-29T08:13:40.334Z,6.28
2019-04-29T08:16:12.676Z,2.67
2019-04-29T08:18:43.952Z,2.97
2019-04-29T08:21:16.027Z,3.02
2019-04-29T08:23:48.970Z,3.80
2019-04-29T08:26:20.132Z,4.03
2019-04-29T08:28:52.978Z,3.57
2019-04-29T08:31:24.482Z,4.50
2019-04-29T08:33:55.392Z,2.37
2019-04-29T08:36:26.245Z,4.13
2019-04-29T08:39:08.022Z,3.00
2019-04-29T08:41:30.068Z,5.27
2019-04-29T08:44:25.946Z,4.03
2019-04-29T08:47:09.513Z,2.37
2019-04-29T08:49:40.294Z,4.53
2019-04-29T08:52:11.149Z,3.40
2019-04-29T08:54:45.343Z,2.50
2019-04-29T08:57:19.419Z,4.13
2019-04-29T08:59:50.307Z,2.00
2019-04-29T09:02:33.581Z,2.35
2019-04-29T09:04:54.117Z,5.00
2019-04-29T09:07:24.909Z,2.17
2019-04-29T09:12:29.558Z,2.47
2019-04-29T09:13:54.520Z,2.50
2019-04-29T09:15:00.755Z,3.33
2019-04-29T09:17:35.016Z,2.00
2019-04-29T09:20:06.493Z,2.67
2019-04-29T09:22:39.562Z,3.27
2019-04-29T09:25:28.255Z,1.90
2019-04-29T09:28:00.711Z,2.03
2019-04-29T09:30:31.619Z,2.03
2019-04-29T09:33:02.506Z,2.00
2019-04-29T09:35:38.536Z,2.30
2019-04-29T09:38:06.458Z,4.30
2019-04-29T09:40:45.597Z,2.93
2019-04-29T09:43:46.275Z,1.83
2019-04-29T09:46:21.531Z,2.05
2019-04-29T09:48:53.668Z,2.30
2019-04-29T09:51:27.953Z,2.27
2019-04-29T09:53:57.378Z,1.90
2019-04-29T09:56:28.346Z,2.47
2019-04-29T09:59:18.313Z,2.65
2019-04-29T10:02:06.805Z,3.20
2019-04-29T10:04:55.781Z,3.37
2019-04-29T10:07:15.951Z,4.10
2019-04-29T10:09:56.945Z,2.60
2019-04-29T10:12:19.468Z,2.50
2019-04-29T10:14:52.443Z,2.80
2019-04-29T10:17:55.846Z,5.40
2019-04-29T10:20:35.670Z,2.43
2019-04-29T10:23:07.459Z,2.30
2019-04-29T10:25:38.354Z,2.53
2019-04-29T10:28:10.122Z,3.93
2019-04-29T10:30:42.514Z,6.23
2019-04-29T10:33:17.694Z,5.83
2019-04-29T10:35:46.529Z,2.90
2019-04-29T10:38:18.292Z,4.93
2019-04-29T10:41:07.240Z,3.40
2019-04-29T10:44:06.727Z,2.80
2019-04-29T10:47:11.649Z,2.97
2019-04-29T10:49:49.552Z,4.03
2019-04-29T10:52:19.642Z,3.63
2019-04-29T10:54:51.170Z,3.10
2019-04-29T10:57:25.248Z,5.27
2019-04-29T11:00:11.084Z,3.87
2019-04-29T11:02:44.775Z,3.90
2019-04-29T11:05:25.250Z,3.70
2019-04-29T11:08:02.691Z,4.27
2019-04-29T11:10:33.523Z,4.03
2019-04-29T11:13:06.232Z,4.28
2019-04-29T11:15:37.550Z,4.57
2019-04-29T11:18:08.639Z,3.97
2019-04-29T11:20:44.472Z,5.27
2019-04-29T11:23:35.503Z,4.57
2019-04-29T11:26:24.371Z,4.67
2019-04-29T11:28:58.479Z,3.83
2019-04-29T11:31:30.418Z,3.87
2019-04-29T11:34:15.971Z,4.92
2019-04-29T11:36:46.264Z,5.73
2019-04-29T11:39:17.627Z,5.55
2019-04-29T11:41:50.100Z,4.60
2019-04-29T11:44:21.953Z,4.85
2019-04-29T11:46:56.631Z,5.40
2019-04-29T11:49:48.506Z,5.00
2019-04-29T11:52:19.354Z,5.20
2019-04-29T11:54:50.222Z,5.53
2019-04-29T11:57:45.529Z,5.60
2019-04-29T12:00:40.494Z,7.15
2019-04-29T12:03:14.363Z,7.80
2019-04-29T12:05:49.283Z,6.40
2019-04-29T12:08:20.265Z,6.05
2019-04-29T12:11:06.025Z,6.80
2019-04-29T12:14:02.750Z,6.63
2019-04-29T12:16:39.750Z,5.07
2019-04-29T12:19:17.027Z,7.83
2019-04-29T12:21:47.205Z,7.10
2019-04-29T12:24:18.559Z,5.43
2019-04-29T12:26:49.402Z,6.43
2019-04-29T12:29:21.957Z,8.00
2019-04-29T12:32:01.475Z,6.73
2019-04-29T12:34:59.447Z,7.63
2019-04-29T12:37:46.398Z,5.73
2019-04-29T12:40:41.328Z,5.17
2019-04-29T12:43:48.593Z,6.80
2019-04-29T12:46:41.291Z,5.70
2019-04-29T12:49:13.810Z,5.10
2019-04-29T12:51:46.914Z,4.83
2019-04-29T12:54:17.833Z,6.53
2019-04-29T12:56:49.488Z,5.13
2019-04-29T12:59:20.727Z,4.97
2019-04-29T13:02:01.711Z,5.35
2019-04-29T13:04:51.884Z,6.90
2019-04-29T13:07:43.113Z,7.33
2019-04-29T13:10:25.052Z,5.63
2019-04-29T13:12:58.426Z,6.10
2019-04-29T13:15:54.659Z,6.03
2019-04-29T13:18:36.040Z,5.23
2019-04-29T13:21:10.835Z,7.73
2019-04-29T13:23:59.127Z,5.87
2019-04-29T13:26:27.408Z,5.75
2019-04-29T13:29:00.390Z,5.73
2019-04-29T13:31:37.019Z,5.37
2019-04-29T13:33:55.880Z,5.70
2019-04-29T13:36:29.913Z,5.33
2019-04-29T13:39:04.043Z,6.87
2019-04-29T13:41:55.827Z,7.03
2019-04-29T13:44:09.395Z,6.65
2019-04-29T13:47:02.712Z,5.50
2019-04-29T13:49:41.926Z,5.40
2019-04-29T13:52:13.423Z,7.50
2019-04-29T13:54:44.495Z,7.07
2019-04-29T13:57:18.182Z,6.08
2019-04-29T14:00:08.665Z,6.13
2019-04-29T14:02:58.726Z,6.97
2019-04-29T14:05:23.693Z,8.53
2019-04-29T14:07:54.602Z,6.53
2019-04-29T14:10:25.454Z,7.00
2019-04-29T14:13:09.069Z,8.70
2019-04-29T14:15:29.588Z,7.87
2019-04-29T14:18:01.690Z,6.80
2019-04-29T14:20:34.888Z,5.73
2019-04-29T14:23:05.933Z,5.67
2019-04-29T14:25:37.057Z,5.37
2019-04-29T14:28:09.136Z,7.17
2019-04-29T14:30:43.767Z,5.92
2019-04-29T14:33:19.204Z,7.67
2019-04-29T14:35:53.844Z,8.80
2019-04-29T14:38:25.294Z,5.93
2019-04-29T14:40:57.207Z,6.05
2019-04-29T14:44:02.385Z,6.92
2019-04-29T14:47:04.463Z,5.27
2019-04-29T14:49:41.412Z,5.03
2019-04-29T14:52:14.895Z,4.80
2019-04-29T14:54:45.736Z,4.27
2019-04-29T14:57:16.747Z,4.23
2019-04-29T14:59:47.976Z,4.27
2019-04-29T15:02:23.131Z,3.70
2019-04-29T15:04:55.501Z,3.90
2019-04-29T15:07:29.407Z,3.47
2019-04-29T15:10:00.586Z,2.80
2019-04-29T15:13:18.368Z,3.27
2019-04-29T15:16:04.882Z,3.60
2019-04-29T15:18:57.724Z,4.10
2019-04-29T15:21:34.999Z,2.87
2019-04-29T15:24:07.166Z,2.90
2019-04-29T15:26:38.088Z,3.00
2019-04-29T15:29:09.056Z,3.30
2019-04-29T15:31:42.519Z,4.00
2019-04-29T15:34:15.427Z,3.30
2019-04-29T15:36:47.779Z,3.60
2019-04-29T15:39:20.224Z,3.58
2019-04-29T15:41:54.434Z,4.00
2019-04-29T15:44:24.244Z,4.43
2019-04-29T15:46:57.060Z,5.07
2019-04-29T15:49:28.068Z,4.03
2019-04-29T15:51:58.877Z,4.43
2019-04-29T15:54:30.049Z,5.10
2019-04-29T15:57:03.740Z,6.83
2019-04-29T15:59:47.933Z,5.97
2019-04-29T16:02:08.687Z,4.83
2019-04-29T16:04:47.208Z,5.13
2019-04-29T16:07:34.948Z,5.83
2019-04-29T16:10:28.106Z,5.17
2019-04-29T16:13:02.690Z,6.40
2019-04-29T16:15:33.634Z,5.30
2019-04-29T16:18:10.774Z,6.03
2019-04-29T16:20:40.717Z,6.37
2019-04-29T16:23:11.795Z,6.40
2019-04-29T16:25:46.170Z,6.67
2019-04-29T16:28:15.401Z,6.78
2019-04-29T16:30:46.528Z,7.07
2019-04-29T16:33:17.817Z,7.53
2019-04-29T16:35:48.665Z,9.13
2019-04-29T16:38:19.672Z,7.70
2019-04-29T16:40:59.607Z,10.17
2019-04-29T16:43:37.781Z,7.77
2019-04-29T16:46:23.451Z,8.10
2019-04-29T16:48:51.409Z,9.27
2019-04-29T16:51:22.318Z,12.50
2019-04-29T16:53:53.367Z,10.20
2019-04-29T16:56:24.544Z,8.70
2019-04-29T16:58:55.759Z,9.40
2019-04-29T17:01:27.127Z,9.43
2019-04-29T17:04:04.892Z,10.30
2019-04-29T17:06:36.123Z,9.93
2019-04-29T17:09:22.987Z,9.97
2019-04-29T17:11:56.211Z,10.93
2019-04-29T17:14:25.696Z,11.53
2019-04-29T17:16:57.489Z,9.47
2019-04-29T17:19:29.999Z,10.33
2019-04-29T17:22:24.299Z,9.93
2019-04-29T17:24:33.885Z,12.20
2019-04-29T17:27:29.034Z,9.80
2019-04-29T17:30:17.724Z,12.57
2019-04-29T17:33:07.926Z,14.70
2019-04-29T17:35:46.851Z,14.57
2019-04-29T17:38:11.889Z,12.80
2019-04-29T17:40:50.911Z,11.87
2019-04-29T17:43:43.117Z,12.67
2019-04-29T17:46:27.123Z,13.83
2019-04-29T17:49:29.526Z,15.60
2019-04-29T17:52:02.408Z,13.60
2019-04-29T17:54:34.842Z,14.17
2019-04-29T17:57:28.176Z,12.00
2019-04-29T18:00:08.627Z,13.83
2019-04-29T18:03:07.718Z,12.20
2019-04-29T18:06:09.884Z,12.50
2019-04-29T18:08:47.305Z,15.60
2019-04-29T18:11:18.158Z,13.05
2019-04-29T18:13:52.548Z,12.93
2019-04-29T18:16:28.415Z,12.23
2019-04-29T18:19:07.258Z,12.67
2019-04-29T18:22:07.312Z,11.23
2019-04-29T18:24:45.459Z,12.37
2019-04-29T18:27:18.131Z,12.00
2019-04-29T18:29:49.130Z,11.73
2019-04-29T18:32:32.834Z,13.10
2019-04-29T18:34:53.516Z,10.70
2019-04-29T18:37:24.979Z,12.37
2019-04-29T18:39:57.778Z,9.27
2019-04-29T18:42:28.209Z,9.33
2019-04-29T18:45:00.366Z,8.33
2019-04-29T18:47:35.426Z,9.60
2019-04-29T18:50:05.132Z,9.30
2019-04-29T18:52:35.972Z,8.43
2019-04-29T18:55:06.988Z,9.47
2019-04-29T18:57:37.936Z,7.83
2019-04-29T19:00:12.722Z,8.73
2019-04-29T19:02:46.094Z,8.33
2019-04-29T19:05:25.663Z,9.43
2019-04-29T19:08:01.452Z,7.93
2019-04-29T19:10:34.427Z,7.90
2019-04-29T19:13:04.575Z,8.93
2019-04-29T19:15:32.512Z,6.87
2019-04-29T19:18:07.608Z,7.83
2019-04-29T19:20:36.915Z,7.67
2019-04-29T19:23:10.060Z,8.10
2019-04-29T19:25:41.456Z,7.73
2019-04-29T19:28:17.350Z,8.48
2019-04-29T19:30:46.257Z,8.00
2019-04-29T19:33:17.031Z,8.03
2019-04-29T19:35:47.857Z,7.13
2019-04-29T19:38:18.627Z,7.80
2019-04-29T19:40:49.505Z,7.40
2019-04-29T19:43:20.340Z,7.37
2019-04-29T19:45:51.201Z,7.97
2019-04-29T19:48:22.565Z,9.53
2019-04-29T19:51:13.833Z,6.85
2019-04-29T19:53:27.121Z,6.87
2019-04-29T19:56:03.870Z,11.07
2019-04-29T19:58:31.878Z,7.57
2019-04-29T20:01:11.590Z,7.77
2019-04-29T20:03:41.851Z,5.97
2019-04-29T20:06:22.150Z,6.10
2019-04-29T20:08:53.933Z,6.83
2019-04-29T20:11:23.711Z,8.38
2019-04-29T20:14:02.232Z,7.33
2019-04-29T20:16:56.442Z,6.90
2019-04-29T20:19:28.393Z,6.77
2019-04-29T20:22:00.542Z,8.10
2019-04-29T20:24:35.732Z,5.77
2019-04-29T20:27:05.970Z,8.60
2019-04-29T20:29:38.612Z,6.53
2019-04-29T20:32:09.116Z,6.47
2019-04-29T20:34:41.427Z,7.00
2019-04-29T20:37:18.144Z,8.60
2019-04-29T20:39:45.622Z,7.73
2019-04-29T20:42:16.880Z,6.57
2019-04-29T20:44:49.386Z,7.03
2019-04-29T20:47:23.279Z,6.60
2019-04-29T20:49:52.858Z,7.13
2019-04-29T20:52:36.497Z,9.33
2019-04-29T20:55:09.296Z,8.33
2019-04-29T20:57:41.708Z,8.07
2019-04-29T21:00:13.820Z,7.30
2019-04-29T21:02:46.289Z,8.73
2019-04-29T21:05:23.195Z,7.92
2019-04-29T21:08:02.119Z,8.33
2019-04-29T21:10:26.840Z,9.03
2019-04-29T21:13:28.621Z,9.23
2019-04-29T21:16:26.550Z,7.93
2019-04-29T21:18:57.323Z,10.83
2019-04-29T21:21:30.425Z,8.27
2019-04-29T21:24:01.238Z,7.67
2019-04-29T21:26:32.078Z,9.33
2019-04-29T21:29:03.005Z,9.37
2019-04-29T21:31:35.544Z,11.03
2019-04-29T21:34:06.672Z,9.47
2019-04-29T21:36:50.898Z,13.80
2019-04-29T21:39:46.842Z,12.78
2019-04-29T21:42:29.682Z,10.73
2019-04-29T21:44:58.613Z,10.27
2019-04-29T21:47:41.621Z,11.17
2019-04-29T21:50:04.977Z,11.57
2019-04-29T21:52:36.245Z,9.67
2019-04-29T21:55:08.318Z,11.73
2019-04-29T21:57:39.146Z,9.43
2019-04-29T22:00:10.866Z,10.03
2019-04-29T22:02:46.687Z,8.95
2019-04-29T22:05:18.321Z,9.45
2019-04-29T22:07:50.088Z,15.23
2019-04-29T22:10:25.129Z,11.28
2019-04-29T22:12:58.352Z,12.43
2019-04-29T22:15:32.757Z,9.40
2019-04-29T22:18:01.658Z,10.97
2019-04-29T22:20:37.582Z,15.67
2019-04-29T22:23:12.678Z,13.38
2019-04-29T22:25:41.195Z,10.77
2019-04-29T22:28:15.239Z,11.73
2019-04-29T22:30:45.211Z,17.33
2019-04-29T22:33:16.289Z,12.57
2019-04-29T22:35:47.200Z,14.93
2019-04-29T22:38:18.725Z,14.93
2019-04-29T22:40:51.005Z,15.03
2019-04-29T22:43:40.280Z,13.62
2019-04-29T22:46:10.774Z,13.60
2019-04-29T22:48:45.467Z,17.57
2019-04-29T22:51:18.660Z,15.83
2019-04-29T22:53:48.311Z,16.47
2019-04-29T22:56:19.210Z,13.73
2019-04-29T22:58:50.184Z,17.03
2019-04-29T23:01:21.008Z,16.97
2019-04-29T23:03:51.771Z,16.60
2019-04-29T23:06:22.482Z,16.93
2019-04-29T23:08:53.254Z,14.70
2019-04-29T23:11:24.093Z,19.90
2019-04-29T23:13:55.445Z,18.50
2019-04-29T23:16:26.350Z,15.80
2019-04-29T23:18:57.210Z,16.93
2019-04-29T23:21:56.128Z,15.87
2019-04-29T23:24:58.322Z,16.60
2019-04-29T23:27:30.231Z,14.03
2019-04-29T23:30:01.084Z,15.90
2019-04-29T23:32:32.049Z,17.37
2019-04-29T23:35:06.278Z,15.53
2019-04-29T23:37:35.869Z,15.67
2019-04-29T23:40:07.515Z,19.97
2019-04-29T23:42:38.262Z,15.70
2019-04-29T23:45:14.527Z,17.27
2019-04-29T23:47:46.873Z,18.13
2019-04-29T23:50:18.674Z,17.00
2019-04-29T23:52:51.846Z,18.90
2019-04-29T23:55:24.976Z,19.93
2019-04-29T23:58:03.701Z,25.35
